Time;durP1;ratioP1;P1;durP2;ratioP2;P2;SDS_P1;SDS_P2;PMS_P1;PMS_P2;Temp;Humidity;BMP_temperature;BMP_pressure;BME280_temperature;BME280_humidity;BME280_pressure;Samples;Min_cycle;Max_cycle;Signal;HPM_P1;HPM_P2
2024/04/18 00:01:33;;;;;;;;;;;;;;;11.98;100.00;98628.97;5454886;26;19993;-86
2024/04/18 00:03:58;;;;;;;;;;;;;;;12.27;100.00;98604.44;5451882;26;19925;-84
2024/04/18 00:06:23;;;;;;;;;;;;;;;12.25;100.00;98601.25;5451289;26;19924;-86
2024/04/18 00:08:49;;;;;;;;;;;;;;;11.98;100.00;98620.97;5451960;26;19932;-85
2024/04/18 00:11:14;;;;;;;;;;;;;;;11.91;100.00;98619.59;5478506;26;20067;-86
2024/04/18 00:13:39;;;;;;;;;;;;;;;12.16;100.00;98602.84;5488132;26;19951;-86
2024/04/18 00:16:05;;;;;;;;;;;;;;;12.62;100.00;98595.63;5488169;26;19923;-86
2024/04/18 00:18:30;;;;;;;;;;;;;;;12.85;100.00;98596.97;5488650;26;19924;-84
2024/04/18 00:20:55;;;;;;;;;;;;;;;12.36;100.00;98599.38;5466170;26;19932;-85
2024/04/18 00:23:20;;;;;;;;;;;;;;;11.97;100.00;98595.34;5451702;26;19931;-86
2024/04/18 00:25:46;;;;;;;;;;;;;;;11.93;100.00;98607.59;5451406;26;19925;-85
2024/04/18 00:28:11;;;;;;;;;;;;;;;11.84;100.00;98601.94;5451755;26;19973;-85
2024/04/18 00:30:36;;;;;;;;;;;;;;;11.91;100.00;98579.53;5454586;26;19932;-85
2024/04/18 00:33:02;;;;;;;;;;;;;;;12.35;100.00;98558.47;5451290;26;19932;-85
2024/04/18 00:35:27;;;;;;;;;;;;;;;12.64;100.00;98539.22;5451351;26;19924;-84
2024/04/18 00:37:52;;;;;;;;;;;;;;;12.70;100.00;98513.25;5451315;26;19993;-84
2024/04/18 00:40:18;;;;;;;;;;;;;;;12.44;100.00;98519.47;5453792;26;19924;-84
2024/04/18 00:42:43;;;;;;;;;;;;;;;11.98;100.00;98529.34;5451292;26;19924;-84
2024/04/18 00:45:08;;;;;;;;;;;;;;;11.86;100.00;98557.06;5451428;26;19925;-84
2024/04/18 00:47:34;;;;;;;;;;;;;;;11.63;100.00;98573.56;5451431;26;20002;-85
2024/04/18 00:49:59;;;;;;;;;;;;;;;11.49;100.00;98573.25;5454153;26;19924;-87
2024/04/18 00:52:25;;;;;;;;;;;;;;;11.59;100.00;98589.31;5451291;26;20361;-86
2024/04/18 00:54:50;;;;;;;;;;;;;;;11.90;100.00;98568.06;5451283;26;19925;-86
2024/04/18 00:57:16;;;;;;;;;;;;;;;11.89;100.00;98557.63;5451165;26;20269;-85
2024/04/18 00:59:43;;;;;;;;;;;;;;;12.21;100.00;98547.50;5451112;26;19960;-86
2024/04/18 01:02:08;;;;;;;;;;;;;;;12.61;100.00;98534.41;5515545;26;19930;-86
2024/04/18 01:04:34;;;;;;;;;;;;;;;12.63;100.00;98521.56;5487291;26;19939;-85
2024/04/18 01:06:59;;;;;;;;;;;;;;;12.81;100.00;98502.28;5487701;26;19924;-86
2024/04/18 01:09:24;;;;;;;;;;;;;;;12.80;100.00;98506.00;5487416;26;19931;-86
2024/04/18 01:11:50;;;;;;;;;;;;;;;12.36;100.00;98511.97;5487191;26;19931;-86
2024/04/18 01:14:15;;;;;;;;;;;;;;;11.94;100.00;98525.59;5487392;26;19924;-86
2024/04/18 01:16:40;;;;;;;;;;;;;;;12.18;100.00;98540.03;5488124;26;19924;-86
2024/04/18 01:19:11;;;;;;;;;;;;;;;12.37;100.00;98548.31;5486795;26;19924;-86
2024/04/18 01:21:37;;;;;;;;;;;;;;;12.45;100.00;98569.16;5487221;26;20345;-85
2024/04/18 01:24:02;;;;;;;;;;;;;;;12.13;100.00;98566.75;5487775;26;19992;-85
2024/04/18 01:26:27;;;;;;;;;;;;;;;12.15;100.00;98559.25;5487647;26;19930;-86
2024/04/18 01:28:52;;;;;;;;;;;;;;;12.20;100.00;98550.47;5487644;26;19924;-86
2024/04/18 01:31:18;;;;;;;;;;;;;;;12.54;100.00;98549.91;5465749;26;19924;-86
2024/04/18 01:33:43;;;;;;;;;;;;;;;12.51;100.00;98542.44;5451151;26;20266;-85
2024/04/18 01:36:08;;;;;;;;;;;;;;;12.63;100.00;98542.97;5450957;26;19924;-86
2024/04/18 01:38:33;;;;;;;;;;;;;;;12.91;100.00;98543.44;5449786;26;19932;-86
2024/04/18 01:40:59;;;;;;;;;;;;;;;12.88;100.00;98554.69;5454711;26;20297;-86
2024/04/18 01:43:24;;;;;;;;;;;;;;;12.92;100.00;98556.56;5453892;26;19932;-86
2024/04/18 01:45:49;;;;;;;;;;;;;;;12.88;100.00;98549.34;5451715;26;19935;-86
2024/04/18 01:48:14;;;;;;;;;;;;;;;12.51;100.00;98531.75;5451847;26;19932;-86
2024/04/18 01:50:40;;;;;;;;;;;;;;;12.30;100.00;98534.44;5461284;26;20341;-86
2024/04/18 01:53:05;;;;;;;;;;;;;;;12.38;100.00;98552.63;5491630;26;19931;-85
2024/04/18 01:55:30;;;;;;;;;;;;;;;12.36;100.00;98569.97;5493897;26;19930;-85
2024/04/18 01:57:55;;;;;;;;;;;;;;;12.17;100.00;98575.84;5493915;26;20281;-85
2024/04/18 02:00:21;;;;;;;;;;;;;;;12.23;100.00;98571.31;5489934;26;19924;-83
2024/04/18 02:02:46;;;;;;;;;;;;;;;12.30;100.00;98550.47;5491565;26;20291;-84
2024/04/18 02:05:11;;;;;;;;;;;;;;;12.07;100.00;98549.09;5491624;26;19992;-86
2024/04/18 02:07:37;;;;;;;;;;;;;;;11.94;100.00;98542.41;5491426;26;19930;-84
2024/04/18 02:10:02;;;;;;;;;;;;;;;11.90;100.00;98552.03;5491694;26;19969;-85
2024/04/18 02:12:27;;;;;;;;;;;;;;;11.82;100.00;98555.97;5490166;26;19924;-85
2024/04/18 02:14:53;;;;;;;;;;;;;;;12.00;100.00;98540.56;5489983;26;19924;-85
2024/04/18 02:17:18;;;;;;;;;;;;;;;11.82;100.00;98542.63;5489648;26;20363;-85
2024/04/18 02:19:43;;;;;;;;;;;;;;;11.98;100.00;98556.84;5488874;26;20314;-84
2024/04/18 02:22:08;;;;;;;;;;;;;;;12.11;100.00;98557.41;5487046;26;19923;-85
2024/04/18 02:24:36;;;;;;;;;;;;;;;12.01;100.00;98559.00;5486890;26;19924;-84
2024/04/18 02:27:01;;;;;;;;;;;;;;;11.96;100.00;98560.84;5486440;26;19935;-84
2024/04/18 02:29:27;;;;;;;;;;;;;;;11.92;100.00;98565.13;5487408;26;19993;-85
2024/04/18 02:31:52;;;;;;;;;;;;;;;11.95;100.00;98568.06;5465013;26;19935;-84
2024/04/18 02:34:17;;;;;;;;;;;;;;;11.94;100.00;98569.13;5453835;26;19933;-85
2024/04/18 02:36:42;;;;;;;;;;;;;;;12.13;100.00;98568.63;5453954;26;20329;-86
2024/04/18 02:39:08;;;;;;;;;;;;;;;11.99;100.00;98571.00;5453698;26;19993;-85
2024/04/18 02:41:33;;;;;;;;;;;;;;;12.04;100.00;98579.03;5472741;26;19931;-86
2024/04/18 02:43:58;;;;;;;;;;;;;;;11.93;100.00;98572.88;5491598;26;19928;-85
2024/04/18 02:46:23;;;;;;;;;;;;;;;11.41;100.00;98577.22;5491651;26;19923;-85
2024/04/18 02:48:49;;;;;;;;;;;;;;;11.69;100.00;98572.53;5489792;26;19992;-84
2024/04/18 02:51:14;;;;;;;;;;;;;;;11.50;100.00;98577.50;5489238;26;20306;-85
2024/04/18 02:53:39;;;;;;;;;;;;;;;11.56;100.00;98576.47;5489694;26;19994;-85
2024/04/18 02:56:05;;;;;;;;;;;;;;;11.82;100.00;98585.34;5489683;26;19930;-85
2024/04/18 02:58:30;;;;;;;;;;;;;;;11.42;100.00;98594.03;5489685;26;20373;-85
2024/04/18 03:00:55;;;;;;;;;;;;;;;11.52;100.00;98594.06;5481144;26;20353;-84
2024/04/18 03:03:21;;;;;;;;;;;;;;;11.67;100.00;98590.66;5452899;26;19925;-84
2024/04/18 03:05:46;;;;;;;;;;;;;;;11.75;100.00;98602.69;5453155;26;19924;-84
2024/04/18 03:08:11;;;;;;;;;;;;;;;11.42;100.00;98602.03;5452902;26;19983;-84
2024/04/18 03:10:36;;;;;;;;;;;;;;;11.81;100.00;98602.47;5455346;26;19996;-84
2024/04/18 03:13:02;;;;;;;;;;;;;;;11.73;100.00;98600.31;5488739;26;20285;-86
2024/04/18 03:15:27;;;;;;;;;;;;;;;11.32;100.00;98591.31;5489453;26;19959;-85
2024/04/18 03:17:53;;;;;;;;;;;;;;;11.49;100.00;98599.94;5489406;26;20373;-85
2024/04/18 03:20:19;;;;;;;;;;;;;;;11.52;100.00;98609.28;5489093;26;19931;-83
2024/04/18 03:22:44;;;;;;;;;;;;;;;11.83;100.00;98596.88;5455193;26;19936;-85
2024/04/18 03:25:09;;;;;;;;;;;;;;;11.71;100.00;98601.59;5452688;26;20077;-85
2024/04/18 03:27:35;;;;;;;;;;;;;;;11.55;100.00;98603.44;5452166;26;19924;-85
2024/04/18 03:30:00;;;;;;;;;;;;;;;11.48;100.00;98606.31;5452517;26;19924;-85
2024/04/18 03:32:25;;;;;;;;;;;;;;;11.54;100.00;98607.94;5480805;26;19924;-84
2024/04/18 03:34:51;;;;;;;;;;;;;;;11.31;100.00;98619.88;5490235;26;20268;-85
2024/04/18 03:37:16;;;;;;;;;;;;;;;11.27;100.00;98613.44;5488967;26;19924;-85
2024/04/18 03:39:41;;;;;;;;;;;;;;;11.44;100.00;98608.72;5488806;26;19930;-84
2024/04/18 03:42:06;;;;;;;;;;;;;;;11.30;100.00;98610.28;5465263;26;20373;-85
2024/04/18 03:44:32;;;;;;;;;;;;;;;11.32;100.00;98615.31;5452639;26;19935;-85
2024/04/18 03:46:57;;;;;;;;;;;;;;;11.26;100.00;98623.31;5452542;26;19940;-85
2024/04/18 03:49:22;;;;;;;;;;;;;;;11.27;100.00;98616.09;5452828;26;19931;-84
2024/04/18 03:51:48;;;;;;;;;;;;;;;11.10;100.00;98610.16;5455490;26;19924;-85
2024/04/18 03:54:13;;;;;;;;;;;;;;;10.91;100.00;98615.91;5452623;26;20358;-85
2024/04/18 03:56:38;;;;;;;;;;;;;;;10.98;100.00;98615.69;5452389;26;19929;-86
2024/04/18 03:59:04;;;;;;;;;;;;;;;10.95;100.00;98611.66;5452791;26;20599;-85
2024/04/18 04:01:29;;;;;;;;;;;;;;;10.74;100.00;98610.69;5464007;26;19931;-86
2024/04/18 04:03:55;;;;;;;;;;;;;;;10.63;100.00;98617.03;5488831;26;20044;-87
2024/04/18 04:06:21;;;;;;;;;;;;;;;10.68;100.00;98617.06;5488714;26;19924;-87
2024/04/18 04:08:46;;;;;;;;;;;;;;;10.62;100.00;98618.06;5488773;26;19930;-86
2024/04/18 04:11:12;;;;;;;;;;;;;;;10.38;100.00;98618.41;5482445;26;20713;-86
2024/04/18 04:13:37;;;;;;;;;;;;;;;10.31;100.00;98620.47;5452315;26;19925;-87
2024/04/18 04:16:03;;;;;;;;;;;;;;;10.39;100.00;98625.34;5452667;26;19928;-86
2024/04/18 04:18:28;;;;;;;;;;;;;;;10.57;100.00;98626.03;5452774;26;19994;-86
2024/04/18 04:20:53;;;;;;;;;;;;;;;10.67;100.00;98634.13;5453563;26;19965;-86
2024/04/18 04:23:19;;;;;;;;;;;;;;;10.58;100.00;98639.13;5453841;26;19969;-85
2024/04/18 04:25:44;;;;;;;;;;;;;;;10.67;100.00;98646.66;5452213;26;19929;-86
2024/04/18 04:28:09;;;;;;;;;;;;;;;10.55;100.00;98649.47;5453686;26;20006;-85
2024/04/18 04:30:34;;;;;;;;;;;;;;;10.23;100.00;98647.53;5452356;26;19928;-85
2024/04/18 04:33:00;;;;;;;;;;;;;;;10.10;100.00;98662.06;5455192;26;19948;-85
2024/04/18 04:35:25;;;;;;;;;;;;;;;10.14;100.00;98655.19;5451976;26;19925;-85
2024/04/18 04:37:50;;;;;;;;;;;;;;;10.23;100.00;98663.53;5452004;26;20001;-86
2024/04/18 04:40:15;;;;;;;;;;;;;;;10.33;100.00;98674.31;5452131;26;19937;-85
2024/04/18 04:42:41;;;;;;;;;;;;;;;10.49;100.00;98671.81;5455023;26;19993;-86
2024/04/18 04:45:06;;;;;;;;;;;;;;;10.55;100.00;98681.47;5452051;26;19935;-86
2024/04/18 04:47:32;;;;;;;;;;;;;;;10.64;100.00;98671.94;5451550;26;19925;-84
2024/04/18 04:49:58;;;;;;;;;;;;;;;10.70;100.00;98684.25;5451771;26;19930;-85
2024/04/18 04:52:23;;;;;;;;;;;;;;;10.83;100.00;98693.72;5452498;26;19925;-83
2024/04/18 04:54:48;;;;;;;;;;;;;;;10.75;100.00;98681.66;5450663;26;20369;-82
2024/04/18 04:57:13;;;;;;;;;;;;;;;10.95;100.00;98685.53;5458306;26;19955;-83
2024/04/18 04:59:39;;;;;;;;;;;;;;;10.85;100.00;98676.41;5488402;26;19930;-83
2024/04/18 05:02:05;;;;;;;;;;;;;;;11.05;100.00;98685.59;5474972;26;19936;-82
2024/04/18 05:04:30;;;;;;;;;;;;;;;11.15;100.00;98696.34;5450193;26;19933;-84
2024/04/18 05:06:55;;;;;;;;;;;;;;;11.25;100.00;98696.41;5449996;26;19925;-84
2024/04/18 05:09:20;;;;;;;;;;;;;;;11.35;100.00;98700.22;5464020;26;19931;-83
2024/04/18 05:11:46;;;;;;;;;;;;;;;11.52;100.00;98703.53;5483700;26;19924;-83
2024/04/18 05:14:11;;;;;;;;;;;;;;;11.27;100.00;98699.63;5487090;26;20229;-83
2024/04/18 05:16:37;;;;;;;;;;;;;;;11.20;100.00;98699.06;5486684;26;19930;-82
2024/04/18 05:19:02;;;;;;;;;;;;;;;11.12;100.00;98698.75;5486661;26;19932;-82
2024/04/18 05:21:27;;;;;;;;;;;;;;;11.09;100.00;98707.25;5483601;26;19924;-82
2024/04/18 05:23:53;;;;;;;;;;;;;;;11.22;100.00;98704.94;5450201;26;19924;-84
2024/04/18 05:26:18;;;;;;;;;;;;;;;11.28;100.00;98705.81;5449792;26;19924;-83
2024/04/18 05:31:27;;;;;;;;;;;;;;;11.58;100.00;98720.38;5455145;26;19932;-81
2024/04/18 05:33:53;;;;;;;;;;;;;;;11.59;100.00;98722.81;5477342;26;19925;-82
2024/04/18 05:36:18;;;;;;;;;;;;;;;11.66;100.00;98717.22;5449635;26;19924;-80
2024/04/18 05:38:43;;;;;;;;;;;;;;;11.82;100.00;98720.78;5451211;26;19925;-79
2024/04/18 05:41:09;;;;;;;;;;;;;;;11.51;100.00;98731.28;5473561;26;19924;-81
2024/04/18 05:43:34;;;;;;;;;;;;;;;11.35;100.00;98726.91;5469402;26;19924;-81
2024/04/18 05:45:59;;;;;;;;;;;;;;;11.52;100.00;98738.22;5469716;26;19925;-80
2024/04/18 05:48:24;;;;;;;;;;;;;;;11.47;100.00;98735.53;5474736;26;20322;-82
2024/04/18 05:50:50;;;;;;;;;;;;;;;11.42;100.00;98727.47;5464342;26;19931;-81
2024/04/18 05:53:16;;;;;;;;;;;;;;;11.18;100.00;98738.53;5477911;26;19923;-82
2024/04/18 05:55:42;;;;;;;;;;;;;;;11.27;100.00;98742.34;5485058;26;20484;-83
2024/04/18 05:58:07;;;;;;;;;;;;;;;11.28;100.00;98748.50;5484830;26;19971;-82
2024/04/18 06:00:32;;;;;;;;;;;;;;;11.10;100.00;98752.34;5485401;26;20000;-82
2024/04/18 06:02:58;;;;;;;;;;;;;;;10.93;100.00;98741.00;5484983;26;19931;-82
2024/04/18 06:05:23;;;;;;;;;;;;;;;10.97;100.00;98760.75;5486158;26;19932;-81
2024/04/18 06:07:48;;;;;;;;;;;;;;;11.01;100.00;98767.19;5485265;26;19931;-82
2024/04/18 06:10:13;;;;;;;;;;;;;;;10.84;100.00;98753.97;5458539;26;19928;-80
2024/04/18 06:12:39;;;;;;;;;;;;;;;10.76;100.00;98767.78;5484694;26;19924;-82
2024/04/18 06:15:04;;;;;;;;;;;;;;;10.67;100.00;98780.75;5484453;26;20268;-84
2024/04/18 06:17:29;;;;;;;;;;;;;;;10.62;100.00;98788.69;5479569;26;19924;-81
2024/04/18 06:19:55;;;;;;;;;;;;;;;10.62;100.00;98794.03;5485903;26;20456;-83
2024/04/18 06:22:20;;;;;;;;;;;;;;;10.69;100.00;98799.97;5483662;26;19931;-82
2024/04/18 06:24:45;;;;;;;;;;;;;;;10.79;100.00;98789.41;5485381;26;19932;-81
2024/04/18 06:27:10;;;;;;;;;;;;;;;10.83;100.00;98797.72;5475011;26;19930;-82
2024/04/18 06:29:36;;;;;;;;;;;;;;;10.95;100.00;98797.56;5483789;26;19939;-82
2024/04/18 06:32:02;;;;;;;;;;;;;;;11.03;100.00;98802.44;5460561;26;20368;-82
2024/04/18 06:34:27;;;;;;;;;;;;;;;11.08;100.00;98818.50;5464334;26;19999;-82
2024/04/18 06:36:53;;;;;;;;;;;;;;;11.05;100.00;98808.31;5484091;26;19932;-80
2024/04/18 06:39:18;;;;;;;;;;;;;;;11.24;100.00;98817.59;5484891;26;19935;-81
2024/04/18 06:41:44;;;;;;;;;;;;;;;11.30;100.00;98814.94;5483400;26;20360;-81
2024/04/18 06:44:09;;;;;;;;;;;;;;;11.30;100.00;98823.78;5485476;26;19992;-82
2024/04/18 06:46:35;;;;;;;;;;;;;;;11.38;100.00;98820.63;5484155;26;20261;-80
2024/04/18 06:49:00;;;;;;;;;;;;;;;11.43;100.00;98820.66;5486028;26;19924;-82
2024/04/18 06:51:26;;;;;;;;;;;;;;;11.47;100.00;98831.66;5483551;26;20261;-83
2024/04/18 06:53:51;;;;;;;;;;;;;;;11.52;100.00;98844.22;5482076;26;19923;-82
2024/04/18 06:56:16;;;;;;;;;;;;;;;11.49;100.00;98845.53;5483632;26;19992;-81
2024/04/18 06:58:41;;;;;;;;;;;;;;;11.82;100.00;98849.00;5480745;26;19935;-81
2024/04/18 07:01:07;;;;;;;;;;;;;;;12.14;100.00;98856.19;5483890;26;19924;-80
2024/04/18 07:03:32;;;;;;;;;;;;;;;12.20;100.00;98863.97;5479059;26;19928;-82
2024/04/18 07:05:58;;;;;;;;;;;;;;;12.00;100.00;98870.00;5483754;26;19931;-80
2024/04/18 07:08:24;;;;;;;;;;;;;;;11.69;100.00;98865.44;5484998;26;19924;-80
2024/04/18 07:10:50;;;;;;;;;;;;;;;11.92;100.00;98865.13;5482617;26;20352;-82
2024/04/18 07:13:15;;;;;;;;;;;;;;;12.31;100.00;98854.13;5482051;26;20642;-80
2024/04/18 07:15:40;;;;;;;;;;;;;;;12.71;100.00;98854.56;5484633;26;19965;-82
2024/04/18 07:18:06;;;;;;;;;;;;;;;13.05;100.00;98865.63;5488270;26;19930;-84
2024/04/18 07:20:31;;;;;;;;;;;;;;;13.60;100.00;98866.00;5478990;26;19935;-82
2024/04/18 07:22:56;;;;;;;;;;;;;;;13.60;100.00;98882.84;5484667;26;19956;-83
2024/04/18 07:25:22;;;;;;;;;;;;;;;13.52;100.00;98883.38;5486740;26;19924;-82
2024/04/18 07:27:48;;;;;;;;;;;;;;;13.90;100.00;98881.25;5487218;26;20031;-79
2024/04/18 07:30:15;;;;;;;;;;;;;;;14.16;100.00;98889.25;5485948;26;20278;-82
2024/04/18 07:32:40;;;;;;;;;;;;;;;13.76;100.00;98890.91;5488141;26;19924;-80
2024/04/18 07:35:06;;;;;;;;;;;;;;;14.49;100.00;98903.13;5488025;26;19956;-80
2024/04/18 07:37:31;;;;;;;;;;;;;;;13.99;100.00;98900.28;5488265;26;19930;-81
2024/04/18 07:39:56;;;;;;;;;;;;;;;13.61;100.00;98900.56;5486415;26;19924;-81
2024/04/18 07:42:22;;;;;;;;;;;;;;;13.69;100.00;98891.19;5482776;26;19935;-81
2024/04/18 07:44:47;;;;;;;;;;;;;;;14.13;100.00;98917.41;5450705;26;19924;-81
2024/04/18 07:47:12;;;;;;;;;;;;;;;14.28;100.00;98903.16;5452631;26;20262;-80
2024/04/18 07:49:38;;;;;;;;;;;;;;;14.37;100.00;98906.91;5483256;26;19935;-81
2024/04/18 07:52:03;;;;;;;;;;;;;;;14.29;100.00;98909.34;5488462;26;20018;-81
2024/04/18 07:54:28;;;;;;;;;;;;;;;14.33;100.00;98903.16;5452225;26;20073;-82
2024/04/18 07:56:54;;;;;;;;;;;;;;;14.62;100.00;98906.06;5459589;26;20260;-82
2024/04/18 07:59:19;;;;;;;;;;;;;;;14.62;100.00;98914.09;5487719;26;20353;-80
2024/04/18 08:01:44;;;;;;;;;;;;;;;14.44;100.00;98918.19;5487575;26;19936;-80
2024/04/18 08:04:10;;;;;;;;;;;;;;;15.17;100.00;98929.44;5487960;26;20317;-81
2024/04/18 08:06:36;;;;;;;;;;;;;;;15.09;100.00;98920.09;5488783;26;19923;-80
2024/04/18 08:09:04;;;;;;;;;;;;;;;15.04;100.00;98930.88;5486691;26;20416;-81
2024/04/18 08:11:29;;;;;;;;;;;;;;;14.66;98.96;98936.63;5488828;26;20268;-82
2024/04/18 08:13:54;;;;;;;;;;;;;;;14.82;100.00;98929.34;5485938;26;19924;-80
2024/04/18 08:16:19;;;;;;;;;;;;;;;15.26;100.00;98927.78;5486524;26;20298;-82
2024/04/18 08:18:45;;;;;;;;;;;;;;;15.35;97.76;98941.44;5488502;26;19931;-83
2024/04/18 08:21:10;;;;;;;;;;;;;;;15.24;100.00;98935.31;5486440;26;19991;-85
2024/04/18 08:23:35;;;;;;;;;;;;;;;14.54;94.78;98946.03;5468210;26;20276;-82
2024/04/18 08:26:01;;;;;;;;;;;;;;;14.12;94.47;98941.81;5450588;26;19932;-81
2024/04/18 08:28:27;;;;;;;;;;;;;;;13.83;100.00;98948.53;5450344;26;19931;-82
2024/04/18 08:30:53;;;;;;;;;;;;;;;14.09;99.37;98940.47;5450210;26;19924;-82
2024/04/18 08:33:18;;;;;;;;;;;;;;;13.80;98.25;98948.25;5453161;26;20278;-81
2024/04/18 08:35:44;;;;;;;;;;;;;;;13.69;99.87;98943.94;5450328;26;19924;-83
2024/04/18 08:38:11;;;;;;;;;;;;;;;14.13;100.00;98943.41;5450103;26;19925;-85
2024/04/18 08:40:36;;;;;;;;;;;;;;;14.54;97.45;98949.50;5451805;26;19931;-81
2024/04/18 08:43:02;;;;;;;;;;;;;;;14.80;99.48;98939.53;5461464;26;19924;-82
2024/04/18 08:45:33;;;;;;;;;;;;;;;14.73;93.96;98938.22;5486737;26;20300;-81
2024/04/18 08:47:59;;;;;;;;;;;;;;;15.20;92.56;98945.81;5486596;26;19923;-84
2024/04/18 08:50:25;;;;;;;;;;;;;;;14.74;96.10;98951.38;5486783;26;19939;-84
2024/04/18 08:52:51;;;;;;;;;;;;;;;15.02;94.48;98944.56;5486133;26;20335;-84
2024/04/18 08:55:17;;;;;;;;;;;;;;;15.26;94.61;98958.16;5486612;26;19931;-81
2024/04/18 08:57:48;;;;;;;;;;;;;;;15.64;92.59;98958.44;5488274;26;19924;-84
2024/04/18 09:00:13;;;;;;;;;;;;;;;15.08;91.18;98964.16;5488029;26;19932;-82
2024/04/18 09:02:39;;;;;;;;;;;;;;;14.84;90.48;98970.13;5484877;26;19935;-81
2024/04/18 09:05:04;;;;;;;;;;;;;;;14.24;92.47;98961.91;5451814;26;20322;-82
2024/04/18 09:07:30;;;;;;;;;;;;;;;14.02;93.35;98964.06;5450527;26;19996;-82
2024/04/18 09:10:09;;;;;;;;;;;;;;;13.97;95.13;98962.19;5449989;26;19931;-81
2024/04/18 09:12:34;;;;;;;;;;;;;;;14.20;100.00;98960.03;5452631;26;19931;-81
2024/04/18 09:15:00;;;;;;;;;;;;;;;14.01;96.31;98963.25;5487398;26;19924;-82
2024/04/18 09:17:27;;;;;;;;;;;;;;;14.04;100.00;98962.72;5487763;26;19923;-81
2024/04/18 09:19:52;;;;;;;;;;;;;;;14.00;97.29;98961.66;5487604;26;19996;-81
2024/04/18 09:22:18;;;;;;;;;;;;;;;14.19;96.52;98963.78;5483700;26;19936;-79
2024/04/18 09:24:45;;;;;;;;;;;;;;;13.90;99.17;98963.53;5486565;26;19924;-81
2024/04/18 09:27:11;;;;;;;;;;;;;;;14.07;99.61;98956.03;5487826;26;19924;-81
2024/04/18 09:29:36;;;;;;;;;;;;;;;14.14;95.71;98956.56;5488219;26;19924;-81
2024/04/18 09:32:02;;;;;;;;;;;;;;;14.39;96.13;98952.25;5488086;26;20436;-83
2024/04/18 09:34:29;;;;;;;;;;;;;;;14.83;95.01;98960.47;5459358;26;19928;-83
2024/04/18 09:36:55;;;;;;;;;;;;;;;14.88;93.95;98956.16;5476646;26;19924;-82
2024/04/18 09:39:27;;;;;;;;;;;;;;;15.26;91.96;98947.41;5486769;26;20404;-84
2024/04/18 09:42:00;;;;;;;;;;;;;;;15.56;84.35;98953.66;5486096;26;19930;-82
2024/04/18 09:44:28;;;;;;;;;;;;;;;15.44;92.92;98939.75;5460452;26;19924;-83
2024/04/18 09:46:54;;;;;;;;;;;;;;;15.82;84.04;98945.47;5487657;26;19992;-83
2024/04/18 09:49:21;;;;;;;;;;;;;;;16.01;78.96;98938.28;5485932;26;19923;-85
2024/04/18 09:51:46;;;;;;;;;;;;;;;16.01;75.31;98954.44;5487915;26;19931;-81
2024/04/18 09:54:12;;;;;;;;;;;;;;;16.34;75.71;98949.28;5465315;26;19936;-83
2024/04/18 09:56:38;;;;;;;;;;;;;;;16.31;74.86;98957.94;5449763;26;20285;-84
2024/04/18 09:59:03;;;;;;;;;;;;;;;15.80;74.91;98961.84;5449360;26;19931;-83
2024/04/18 10:01:29;;;;;;;;;;;;;;;15.73;75.97;98963.25;5449861;26;20265;-82
2024/04/18 10:03:54;;;;;;;;;;;;;;;15.91;65.76;98965.25;5451892;26;19985;-82
2024/04/18 10:06:22;;;;;;;;;;;;;;;15.67;64.34;98968.66;5449861;26;20359;-82
2024/04/18 10:08:50;;;;;;;;;;;;;;;15.98;65.61;98959.59;5459367;26;19992;-81
2024/04/18 10:11:17;;;;;;;;;;;;;;;15.90;64.13;98963.69;5487790;26;19923;-82
2024/04/18 10:13:43;;;;;;;;;;;;;;;15.61;60.30;98977.00;5487121;26;19924;-83
2024/04/18 10:16:15;;;;;;;;;;;;;;;15.54;64.07;98976.53;5485638;26;20017;-83
2024/04/18 10:18:41;;;;;;;;;;;;;;;15.33;62.51;98982.00;5487922;26;19953;-81
2024/04/18 10:21:07;;;;;;;;;;;;;;;15.03;61.21;98978.38;5485776;26;19924;-85
2024/04/18 10:23:33;;;;;;;;;;;;;;;15.08;61.39;98969.50;5476793;26;19938;-82
2024/04/18 10:25:58;;;;;;;;;;;;;;;15.20;63.05;98964.63;5449299;26;20009;-82
2024/04/18 10:28:25;;;;;;;;;;;;;;;15.63;62.06;98964.91;5473657;26;20290;-81
2024/04/18 10:30:51;;;;;;;;;;;;;;;15.91;62.13;98957.19;5483895;26;19924;-83
2024/04/18 10:33:16;;;;;;;;;;;;;;;15.81;61.68;98957.28;5480265;26;19952;-82
2024/04/18 10:35:42;;;;;;;;;;;;;;;15.82;59.88;98956.22;5447470;26;20260;-83
2024/04/18 10:38:07;;;;;;;;;;;;;;;16.02;62.26;98961.44;5447287;26;20058;-84
2024/04/18 10:40:33;;;;;;;;;;;;;;;16.13;57.80;98956.75;5447645;26;19924;-82
2024/04/18 10:43:11;;;;;;;;;;;;;;;15.96;58.40;98957.16;5449735;26;19932;-82
2024/04/18 10:45:36;;;;;;;;;;;;;;;15.96;57.94;98951.78;5450261;26;19935;-82
2024/04/18 10:48:02;;;;;;;;;;;;;;;16.20;57.82;98954.56;5448271;26;20250;-83
2024/04/18 10:50:28;;;;;;;;;;;;;;;15.86;56.96;98958.03;5450528;26;19932;-83
2024/04/18 10:52:54;;;;;;;;;;;;;;;15.80;58.40;98953.00;5475599;26;20372;-82
2024/04/18 10:55:21;;;;;;;;;;;;;;;15.80;57.63;98950.31;5457863;26;19924;-83
2024/04/18 10:57:48;;;;;;;;;;;;;;;15.88;57.27;98948.91;5452438;26;19970;-82
2024/04/18 11:00:16;;;;;;;;;;;;;;;15.94;57.28;98951.28;5452040;26;19932;-83
2024/04/18 11:02:42;;;;;;;;;;;;;;;15.97;60.75;98942.63;5453398;26;20277;-82
2024/04/18 11:05:08;;;;;;;;;;;;;;;15.97;59.25;98942.63;5454184;26;20341;-82
2024/04/18 11:07:33;;;;;;;;;;;;;;;16.07;59.11;98950.59;5451852;26;20282;-83
2024/04/18 11:09:58;;;;;;;;;;;;;;;15.95;56.68;98938.63;5453872;26;20348;-82
2024/04/18 11:12:24;;;;;;;;;;;;;;;15.83;59.23;98939.81;5453850;26;19931;-83
2024/04/18 11:14:51;;;;;;;;;;;;;;;16.00;57.77;98944.78;5477994;26;19924;-82
2024/04/18 11:17:16;;;;;;;;;;;;;;;15.61;58.89;98934.00;5489675;26;19931;-81
2024/04/18 11:19:42;;;;;;;;;;;;;;;15.73;58.00;98942.53;5488119;26;19924;-82
2024/04/18 11:22:07;;;;;;;;;;;;;;;15.50;57.22;98953.97;5488635;26;19924;-83
2024/04/18 11:24:33;;;;;;;;;;;;;;;16.24;55.49;98944.00;5488072;26;19924;-80
2024/04/18 11:27:01;;;;;;;;;;;;;;;16.36;54.46;98949.81;5488247;26;19924;-83
2024/04/18 11:29:27;;;;;;;;;;;;;;;16.26;53.66;98956.09;5490430;26;19952;-85
2024/04/18 11:31:52;;;;;;;;;;;;;;;15.99;54.01;98950.41;5488166;26;20258;-83
2024/04/18 11:34:17;;;;;;;;;;;;;;;15.56;54.14;98953.66;5485353;26;19924;-84
2024/04/18 11:36:43;;;;;;;;;;;;;;;15.12;55.41;98959.81;5490056;26;19924;-83
2024/04/18 11:39:08;;;;;;;;;;;;;;;15.13;57.05;98960.63;5488483;26;19931;-84
2024/04/18 11:41:33;;;;;;;;;;;;;;;15.25;56.08;98956.53;5490022;26;19930;-83
2024/04/18 11:44:01;;;;;;;;;;;;;;;15.30;56.08;98966.44;5485146;26;19923;-84
2024/04/18 11:46:26;;;;;;;;;;;;;;;15.37;56.99;98971.53;5488917;26;19935;-83
2024/04/18 11:48:51;;;;;;;;;;;;;;;15.50;56.64;98960.16;5488681;26;19924;-83
2024/04/18 11:51:17;;;;;;;;;;;;;;;15.78;58.27;98960.53;5490140;26;19923;-82
2024/04/18 11:53:42;;;;;;;;;;;;;;;16.48;54.60;98952.91;5483795;26;19931;-82
2024/04/18 11:56:07;;;;;;;;;;;;;;;17.00;53.79;98950.50;5451780;26;20357;-81
2024/04/18 11:58:33;;;;;;;;;;;;;;;17.91;50.70;98944.09;5451786;26;19924;-84
2024/04/18 12:00:58;;;;;;;;;;;;;;;18.39;50.10;98951.91;5465279;26;19932;-84
2024/04/18 12:03:27;;;;;;;;;;;;;;;18.44;48.94;98946.41;5488776;26;19935;-84
2024/04/18 12:05:52;;;;;;;;;;;;;;;19.11;48.02;98952.47;5487086;26;19924;-83
2024/04/18 12:08:17;;;;;;;;;;;;;;;19.36;45.86;98949.19;5487595;26;20303;-83
2024/04/18 12:10:43;;;;;;;;;;;;;;;19.49;42.89;98947.53;5486832;26;20420;-81
2024/04/18 12:13:08;;;;;;;;;;;;;;;19.94;42.62;98961.16;5488930;26;19924;-83
2024/04/18 12:15:33;;;;;;;;;;;;;;;19.10;44.87;98951.63;5457560;26;19935;-83
2024/04/18 12:17:59;;;;;;;;;;;;;;;19.30;42.85;98961.22;5453238;26;20361;-85
2024/04/18 12:20:24;;;;;;;;;;;;;;;19.05;40.16;98957.16;5453895;26;19924;-81
2024/04/18 12:22:50;;;;;;;;;;;;;;;17.98;42.72;98949.94;5477670;26;19924;-87
2024/04/18 12:25:15;;;;;;;;;;;;;;;17.67;43.08;98955.78;5487343;26;19961;-84
2024/04/18 12:27:41;;;;;;;;;;;;;;;17.51;42.11;98950.88;5488129;26;19925;-85
2024/04/18 12:30:07;;;;;;;;;;;;;;;17.22;44.38;98949.94;5489841;26;19923;-84
2024/04/18 12:32:32;;;;;;;;;;;;;;;17.31;41.71;98941.22;5487430;26;19939;-84
2024/04/18 12:34:58;;;;;;;;;;;;;;;17.22;42.98;98941.88;5468456;26;19925;-82